createdAt,value
2022-08-16T00:00:20.469Z,19.76
2022-08-16T00:02:50.550Z,19.68
2022-08-16T00:05:20.397Z,19.70
2022-08-16T00:07:49.409Z,19.74
2022-08-16T00:10:26.903Z,19.69
2022-08-16T00:12:56.616Z,19.66
2022-08-16T00:15:52.171Z,19.64
2022-08-16T00:18:16.491Z,19.63
2022-08-16T00:20:45.767Z,19.61
2022-08-16T00:23:14.155Z,19.56
2022-08-16T00:26:35.031Z,19.52
2022-08-16T00:28:32.670Z,19.51
2022-08-16T00:31:01.021Z,19.52
2022-08-16T00:33:29.458Z,19.51
2022-08-16T00:35:58.686Z,19.48
2022-08-16T00:38:40.051Z,19.51
2022-08-16T00:41:12.779Z,19.54
2022-08-16T00:43:43.502Z,19.45
2022-08-16T00:46:33.343Z,19.41
2022-08-16T00:49:02.526Z,19.40
2022-08-16T00:51:30.477Z,19.43
2022-08-16T00:53:58.491Z,19.43
2022-08-16T00:56:57.194Z,19.44
2022-08-16T00:59:18.206Z,19.39
2022-08-16T01:01:46.734Z,19.36
2022-08-16T01:04:28.869Z,19.31
2022-08-16T01:07:02.289Z,19.31
2022-08-16T01:09:33.293Z,19.31
2022-08-16T01:12:04.462Z,19.25
2022-08-16T01:14:38.614Z,19.21
2022-08-16T01:17:08.234Z,19.21
2022-08-16T01:19:37.970Z,19.20
2022-08-16T01:22:59.084Z,19.18
2022-08-16T01:25:04.134Z,19.16
2022-08-16T01:27:34.573Z,19.12
2022-08-16T01:30:20.205Z,19.07
2022-08-16T01:33:01.202Z,19.02
2022-08-16T01:35:35.345Z,19.01
2022-08-16T01:38:19.443Z,19.01
2022-08-16T01:40:49.491Z,18.97
2022-08-16T01:43:17.477Z,18.98
2022-08-16T01:45:46.132Z,18.95
2022-08-16T01:48:20.108Z,18.97
2022-08-16T01:51:08.229Z,18.92
2022-08-16T01:53:40.628Z,18.93
2022-08-16T01:56:24.342Z,18.97
2022-08-16T01:58:52.825Z,18.91
2022-08-16T02:01:20.801Z,18.88
2022-08-16T02:03:50.368Z,18.82
2022-08-16T02:06:33.716Z,18.81
2022-08-16T02:09:05.222Z,18.74
2022-08-16T02:11:43.022Z,18.72
2022-08-16T02:14:18.329Z,18.66
2022-08-16T02:16:48.933Z,18.65
2022-08-16T02:19:17.645Z,18.64
2022-08-16T02:22:08.927Z,18.62
2022-08-16T02:24:40.907Z,18.64
2022-08-16T02:27:10.767Z,18.68
2022-08-16T02:29:41.250Z,18.67
2022-08-16T02:32:50.343Z,18.65
2022-08-16T02:34:58.263Z,18.61
2022-08-16T02:37:39.766Z,18.56
2022-08-16T02:40:16.240Z,18.56
2022-08-16T02:42:47.756Z,18.56
2022-08-16T02:45:17.964Z,18.59
2022-08-16T02:48:01.064Z,18.59
2022-08-16T02:50:54.053Z,18.64
2022-08-16T02:53:23.318Z,18.62
2022-08-16T02:55:51.499Z,18.61
2022-08-16T02:58:24.970Z,18.65
2022-08-16T03:00:53.301Z,18.65
2022-08-16T03:03:25.036Z,18.66
2022-08-16T03:05:53.506Z,18.64
2022-08-16T03:08:50.267Z,18.60
2022-08-16T03:11:16.569Z,18.58
2022-08-16T03:13:48.149Z,18.49
2022-08-16T03:16:38.206Z,18.49
2022-08-16T03:19:07.576Z,18.47
2022-08-16T03:21:38.143Z,18.45
2022-08-16T03:24:27.682Z,18.47
2022-08-16T03:26:57.702Z,18.47
2022-08-16T03:29:30.292Z,18.49
2022-08-16T03:31:59.144Z,18.51
2022-08-16T03:34:27.670Z,18.50
2022-08-16T03:36:55.518Z,18.50
2022-08-16T03:39:23.892Z,18.52
2022-08-16T03:41:59.807Z,18.54
2022-08-16T03:44:44.516Z,18.58
2022-08-16T03:47:19.130Z,18.64
2022-08-16T03:49:51.641Z,18.65
2022-08-16T03:52:20.370Z,18.66
2022-08-16T03:54:53.173Z,18.67
2022-08-16T03:57:31.773Z,18.68
2022-08-16T04:00:20.181Z,18.69
2022-08-16T04:03:02.888Z,18.75
2022-08-16T04:05:33.082Z,18.78
2022-08-16T04:08:15.116Z,18.79
2022-08-16T04:10:50.519Z,18.83
2022-08-16T04:13:20.090Z,18.86
2022-08-16T04:15:49.590Z,18.92
2022-08-16T04:18:20.623Z,19.03
2022-08-16T04:20:50.074Z,19.11
2022-08-16T04:23:17.803Z,19.30
2022-08-16T04:25:47.068Z,19.32
2022-08-16T04:28:52.285Z,19.37
2022-08-16T04:31:04.153Z,19.46
2022-08-16T04:33:35.174Z,19.53
2022-08-16T04:36:02.981Z,19.59
2022-08-16T04:38:32.503Z,19.69
2022-08-16T04:41:00.183Z,19.79
2022-08-16T04:43:27.905Z,19.87
2022-08-16T04:46:00.194Z,19.98
2022-08-16T04:48:34.248Z,20.06
2022-08-16T04:51:02.246Z,20.13
2022-08-16T04:53:41.268Z,20.20
2022-08-16T04:56:11.519Z,20.31
2022-08-16T04:58:45.820Z,20.40
2022-08-16T05:01:15.197Z,20.49
2022-08-16T05:04:00.611Z,20.51
2022-08-16T05:06:42.266Z,20.59
2022-08-16T05:09:13.397Z,20.66
2022-08-16T05:11:41.195Z,20.77
2022-08-16T05:14:09.104Z,20.81
2022-08-16T05:16:36.816Z,20.90
2022-08-16T05:19:11.513Z,20.95
2022-08-16T05:21:39.735Z,21.05
2022-08-16T05:24:09.113Z,21.10
2022-08-16T05:26:37.531Z,21.20
2022-08-16T05:29:14.669Z,21.27
2022-08-16T05:31:48.094Z,21.34
2022-08-16T05:34:22.246Z,21.43
2022-08-16T05:36:51.231Z,21.57
2022-08-16T05:39:20.554Z,21.64
2022-08-16T05:41:51.727Z,21.80
2022-08-16T05:44:24.249Z,21.90
2022-08-16T05:46:52.996Z,21.98
2022-08-16T05:49:24.233Z,22.11
2022-08-16T05:51:51.905Z,22.17
2022-08-16T05:54:24.934Z,22.22
2022-08-16T05:56:53.810Z,22.37
2022-08-16T05:59:22.200Z,22.41
2022-08-16T06:01:52.090Z,22.57
2022-08-16T06:04:34.804Z,22.66
2022-08-16T06:07:08.843Z,22.86
2022-08-16T06:09:42.851Z,23.07
2022-08-16T06:12:27.166Z,23.22
2022-08-16T06:14:58.958Z,23.44
2022-08-16T06:17:43.036Z,23.55
2022-08-16T06:20:14.345Z,23.66
2022-08-16T06:22:47.649Z,23.77
2022-08-16T06:25:35.432Z,23.86
2022-08-16T06:28:08.777Z,23.97
2022-08-16T06:30:44.029Z,24.09
2022-08-16T06:33:13.035Z,24.17
2022-08-16T06:35:55.300Z,24.22
2022-08-16T06:38:33.527Z,24.31
2022-08-16T06:41:03.838Z,24.38
2022-08-16T06:43:31.943Z,24.57
2022-08-16T06:46:00.783Z,24.67
2022-08-16T06:48:33.042Z,24.79
2022-08-16T06:51:01.438Z,24.89
2022-08-16T06:53:35.595Z,24.96
2022-08-16T06:56:06.041Z,25.08
2022-08-16T06:58:41.812Z,25.18
2022-08-16T07:01:09.815Z,25.23
2022-08-16T07:03:55.380Z,25.30
2022-08-16T07:06:26.793Z,25.39
2022-08-16T07:08:59.166Z,25.48
2022-08-16T07:11:47.373Z,25.62
2022-08-16T07:14:25.363Z,25.69
2022-08-16T07:16:54.475Z,25.77
2022-08-16T07:19:22.546Z,25.85
2022-08-16T07:22:52.456Z,25.95
2022-08-16T07:24:59.250Z,26.06
2022-08-16T07:27:27.100Z,26.14
2022-08-16T07:29:58.084Z,26.27
2022-08-16T07:32:29.110Z,26.33
2022-08-16T07:34:56.965Z,26.41
2022-08-16T07:37:25.702Z,26.50
2022-08-16T07:39:54.645Z,26.58
2022-08-16T07:42:28.691Z,26.72
2022-08-16T07:45:03.416Z,26.87
2022-08-16T07:47:35.255Z,26.92
2022-08-16T07:50:05.627Z,26.97
2022-08-16T07:52:39.018Z,27.00
2022-08-16T07:55:07.778Z,27.11
2022-08-16T07:57:58.003Z,27.20
2022-08-16T08:00:26.518Z,27.31
2022-08-16T08:02:55.601Z,27.49
2022-08-16T08:05:35.830Z,27.47
2022-08-16T08:08:11.876Z,27.49
2022-08-16T08:10:52.805Z,27.55
2022-08-16T08:13:41.861Z,27.55
2022-08-16T08:16:18.481Z,27.55
2022-08-16T08:18:50.296Z,27.65
2022-08-16T08:21:27.245Z,27.73
2022-08-16T08:23:57.822Z,27.71
2022-08-16T08:26:28.671Z,27.66
2022-08-16T08:29:00.959Z,27.59
2022-08-16T08:31:29.253Z,27.53
2022-08-16T08:33:58.588Z,27.50
2022-08-16T08:36:33.197Z,27.54
2022-08-16T08:39:03.127Z,27.57
2022-08-16T08:41:42.397Z,27.60
2022-08-16T08:44:28.595Z,27.59
2022-08-16T08:47:00.003Z,27.57
2022-08-16T08:49:50.705Z,27.60
2022-08-16T08:52:34.152Z,27.63
2022-08-16T08:55:10.771Z,27.60
2022-08-16T08:57:40.759Z,27.59
2022-08-16T09:00:13.537Z,27.64
2022-08-16T09:02:41.894Z,27.80
2022-08-16T09:05:15.682Z,27.90
2022-08-16T09:08:00.823Z,27.90
2022-08-16T09:10:30.099Z,27.92
2022-08-16T09:12:57.822Z,27.89
2022-08-16T09:15:32.784Z,27.88
2022-08-16T09:18:01.979Z,27.90
2022-08-16T09:20:30.667Z,28.02
2022-08-16T09:22:58.990Z,28.21
2022-08-16T09:25:33.619Z,28.40
2022-08-16T09:28:09.269Z,28.53
2022-08-16T09:30:44.168Z,28.63
2022-08-16T09:33:14.343Z,28.56
2022-08-16T09:35:42.537Z,28.48
2022-08-16T09:38:22.141Z,28.55
2022-08-16T09:41:01.308Z,28.56
2022-08-16T09:46:48.348Z,28.34
2022-08-16T09:49:06.163Z,28.27
2022-08-16T09:51:37.355Z,28.23
2022-08-16T09:54:05.481Z,28.17
2022-08-16T09:56:34.582Z,28.09
2022-08-16T09:59:05.843Z,28.04
2022-08-16T10:01:38.542Z,27.94
2022-08-16T10:04:30.424Z,27.74
2022-08-16T10:09:53.477Z,27.05
2022-08-16T10:12:34.277Z,26.78
2022-08-16T10:15:02.111Z,26.55
2022-08-16T10:17:31.306Z,26.46
2022-08-16T10:19:58.982Z,26.43
2022-08-16T10:22:27.127Z,26.43
2022-08-16T10:24:55.604Z,26.46
2022-08-16T10:27:30.040Z,26.53
2022-08-16T10:30:25.820Z,26.63
2022-08-16T10:32:57.385Z,26.72
2022-08-16T10:35:32.673Z,26.80
2022-08-16T10:38:01.010Z,26.88
2022-08-16T10:40:30.485Z,26.95
2022-08-16T10:43:00.204Z,27.03
2022-08-16T10:45:28.865Z,27.09
2022-08-16T10:48:27.057Z,27.08
2022-08-16T10:50:58.253Z,27.11
2022-08-16T10:53:26.424Z,27.10
2022-08-16T10:56:01.886Z,27.10
2022-08-16T10:58:34.569Z,27.08
2022-08-16T11:01:25.073Z,27.07
2022-08-16T11:03:56.920Z,27.07
2022-08-16T11:06:27.811Z,27.07
2022-08-16T11:14:34.536Z,27.02
2022-08-16T11:17:10.503Z,27.01
2022-08-16T11:22:46.960Z,27.02
2022-08-16T11:26:07.373Z,27.04
2022-08-16T11:28:06.040Z,27.12
2022-08-16T11:30:38.941Z,27.22
2022-08-16T11:33:07.264Z,27.39
2022-08-16T11:38:51.048Z,27.84
2022-08-16T11:41:15.236Z,27.89
2022-08-16T11:43:43.065Z,27.88
2022-08-16T11:46:45.569Z,27.93
2022-08-16T11:49:02.684Z,28.04
2022-08-16T11:51:31.789Z,28.08
2022-08-16T11:53:59.471Z,28.18
2022-08-16T11:56:51.424Z,28.27
2022-08-16T11:59:14.901Z,28.37
2022-08-16T12:01:44.534Z,28.43
2022-08-16T12:04:23.585Z,28.48
2022-08-16T12:06:54.932Z,28.53
2022-08-16T12:09:24.103Z,28.65
2022-08-16T12:11:53.338Z,28.70
2022-08-16T12:14:22.852Z,28.77
2022-08-16T12:16:55.147Z,28.78
2022-08-16T12:19:33.676Z,28.82
2022-08-16T12:22:05.548Z,28.76
2022-08-16T12:24:34.192Z,28.82
2022-08-16T12:27:03.111Z,28.92
2022-08-16T12:29:31.031Z,28.87
2022-08-16T12:32:00.968Z,28.83
2022-08-16T12:34:29.640Z,28.83
2022-08-16T12:36:57.431Z,28.84
2022-08-16T12:39:29.081Z,28.86
2022-08-16T12:41:57.638Z,28.93
2022-08-16T12:44:31.395Z,28.95
2022-08-16T12:47:14.777Z,28.99
2022-08-16T12:49:45.236Z,28.95
2022-08-16T12:52:32.617Z,28.93
2022-08-16T12:55:02.501Z,28.93
2022-08-16T12:57:36.686Z,28.99
2022-08-16T13:00:06.141Z,28.98
2022-08-16T13:02:36.634Z,29.02
2022-08-16T13:05:06.892Z,29.01
2022-08-16T13:07:37.503Z,28.98
2022-08-16T13:10:21.073Z,28.89
2022-08-16T13:13:02.218Z,28.90
2022-08-16T13:15:31.943Z,28.89
2022-08-16T13:18:24.080Z,28.83
2022-08-16T13:20:51.922Z,28.86
2022-08-16T13:23:20.134Z,28.96
2022-08-16T13:25:50.115Z,29.01
2022-08-16T13:28:22.920Z,29.03
2022-08-16T13:30:57.036Z,28.98
2022-08-16T13:33:30.053Z,28.92
2022-08-16T13:35:58.787Z,28.84
2022-08-16T13:38:30.182Z,28.81
2022-08-16T13:41:03.201Z,28.85
2022-08-16T13:43:32.573Z,28.72
2022-08-16T13:46:03.010Z,28.65
2022-08-16T13:48:42.568Z,28.62
2022-08-16T13:51:16.804Z,28.66
2022-08-16T13:53:45.826Z,28.61
2022-08-16T13:56:25.273Z,28.63
2022-08-16T13:58:54.519Z,28.66
2022-08-16T14:01:23.538Z,28.64
2022-08-16T14:03:54.821Z,28.60
2022-08-16T14:06:23.822Z,28.50
2022-08-16T14:08:59.350Z,28.44
2022-08-16T14:11:36.481Z,28.41
2022-08-16T14:14:05.360Z,28.31
2022-08-16T14:16:34.868Z,28.21
2022-08-16T14:19:08.101Z,28.07
2022-08-16T14:21:35.946Z,28.02
2022-08-16T14:24:12.895Z,27.99
2022-08-16T14:26:52.780Z,27.90
2022-08-16T14:29:21.289Z,27.84
2022-08-16T14:31:54.001Z,27.81
2022-08-16T14:34:25.605Z,27.76
2022-08-16T14:36:53.672Z,27.74
2022-08-16T14:39:23.244Z,27.74
2022-08-16T14:41:53.721Z,27.80
2022-08-16T14:44:23.758Z,27.89
2022-08-16T14:46:54.044Z,27.98
2022-08-16T14:49:21.726Z,28.03
2022-08-16T14:51:49.511Z,28.05
2022-08-16T14:54:17.160Z,28.07
2022-08-16T14:56:55.169Z,28.10
2022-08-16T14:59:24.899Z,28.14
2022-08-16T15:01:58.604Z,28.15
2022-08-16T15:04:40.105Z,28.19
2022-08-16T15:07:16.628Z,28.14
2022-08-16T15:10:01.143Z,28.15
2022-08-16T15:12:30.864Z,28.12
2022-08-16T15:15:04.530Z,28.12
2022-08-16T15:17:54.624Z,28.14
2022-08-16T15:20:26.352Z,28.12
2022-08-16T15:22:54.758Z,28.13
2022-08-16T15:25:23.824Z,28.13
2022-08-16T15:27:57.240Z,28.12
2022-08-16T15:30:57.480Z,28.11
2022-08-16T15:33:16.241Z,28.09
2022-08-16T15:35:44.233Z,28.15
2022-08-16T15:38:57.585Z,28.17
2022-08-16T15:40:59.926Z,28.22
2022-08-16T15:43:39.588Z,28.20
2022-08-16T15:46:35.346Z,28.21
2022-08-16T15:49:13.321Z,28.07
2022-08-16T15:51:43.684Z,28.01
2022-08-16T15:54:29.388Z,28.01
2022-08-16T15:57:01.598Z,28.01
2022-08-16T15:59:47.912Z,28.01
2022-08-16T16:02:29.683Z,28.01
2022-08-16T16:05:00.432Z,27.95
2022-08-16T16:07:30.103Z,27.91
2022-08-16T16:09:58.934Z,27.95
2022-08-16T16:12:51.114Z,27.86
2022-08-16T16:15:16.225Z,27.72
2022-08-16T16:17:50.866Z,27.63
2022-08-16T16:20:20.037Z,27.55
2022-08-16T16:22:49.402Z,27.53
2022-08-16T16:25:18.611Z,27.50
2022-08-16T16:27:59.258Z,27.45
2022-08-16T16:30:33.185Z,27.38
2022-08-16T16:33:07.426Z,27.30
2022-08-16T16:35:36.379Z,27.23
2022-08-16T16:38:08.072Z,27.18
2022-08-16T16:40:46.417Z,27.12
2022-08-16T16:43:15.136Z,27.07
2022-08-16T16:45:43.956Z,27.01
2022-08-16T16:48:13.180Z,26.97
2022-08-16T16:50:44.611Z,26.96
2022-08-16T16:53:16.836Z,26.92
2022-08-16T16:55:47.768Z,26.87
2022-08-16T16:58:36.650Z,26.83
2022-08-16T17:01:07.980Z,26.80
2022-08-16T17:03:38.673Z,26.80
2022-08-16T17:06:09.055Z,26.78
2022-08-16T17:08:40.714Z,26.74
2022-08-16T17:11:09.657Z,26.68
2022-08-16T17:13:37.392Z,26.61
2022-08-16T17:16:06.145Z,26.53
2022-08-16T17:19:17.426Z,26.49
2022-08-16T17:21:28.242Z,26.43
2022-08-16T17:23:59.062Z,26.36
2022-08-16T17:26:29.800Z,26.28
2022-08-16T17:29:16.245Z,26.24
2022-08-16T17:31:44.015Z,26.17
2022-08-16T17:34:29.026Z,26.14
2022-08-16T17:36:59.580Z,26.10
2022-08-16T17:39:29.552Z,26.03
2022-08-16T17:41:57.822Z,25.99
2022-08-16T17:44:25.543Z,25.94
2022-08-16T17:46:53.323Z,25.89
2022-08-16T17:49:22.464Z,25.83
2022-08-16T17:51:50.174Z,25.77
2022-08-16T17:54:20.526Z,25.71
2022-08-16T17:56:58.739Z,25.66
2022-08-16T17:59:29.077Z,25.60
2022-08-16T18:01:56.893Z,25.57
2022-08-16T18:04:49.512Z,25.55
2022-08-16T18:07:14.000Z,25.50
2022-08-16T18:09:42.043Z,25.43
2022-08-16T18:12:44.459Z,25.37
2022-08-16T18:15:03.159Z,25.35
2022-08-16T18:17:32.030Z,25.25
2022-08-16T18:20:01.332Z,25.22
2022-08-16T18:22:30.665Z,25.22
2022-08-16T18:24:59.131Z,25.20
2022-08-16T18:27:28.442Z,25.16
2022-08-16T18:29:56.269Z,25.16
2022-08-16T18:32:24.711Z,25.15
2022-08-16T18:34:52.907Z,25.14
2022-08-16T18:37:24.066Z,25.08
2022-08-16T18:39:51.791Z,25.03
2022-08-16T18:42:20.520Z,24.97
2022-08-16T18:44:49.079Z,24.97
2022-08-16T18:47:16.746Z,24.93
2022-08-16T18:49:44.452Z,24.89
2022-08-16T18:52:25.253Z,24.84
2022-08-16T18:55:01.750Z,24.75
2022-08-16T18:57:41.633Z,24.63
2022-08-16T19:00:12.380Z,24.56
2022-08-16T19:02:56.812Z,24.43
2022-08-16T19:05:29.173Z,24.36
2022-08-16T19:07:56.854Z,24.30
2022-08-16T19:10:25.974Z,24.21
2022-08-16T19:12:53.823Z,24.16
2022-08-16T19:15:22.876Z,24.12
2022-08-16T19:17:50.935Z,24.06
2022-08-16T19:20:20.551Z,24.01
2022-08-16T19:23:05.686Z,23.96
2022-08-16T19:25:48.066Z,23.96
2022-08-16T19:28:49.131Z,23.94
2022-08-16T19:31:08.066Z,23.89
2022-08-16T19:33:35.815Z,23.85
2022-08-16T19:36:05.127Z,23.82
2022-08-16T19:38:32.821Z,23.74
2022-08-16T19:41:02.162Z,23.72
2022-08-16T19:43:30.056Z,23.69
2022-08-16T19:45:57.743Z,23.66
2022-08-16T19:48:25.498Z,23.63
2022-08-16T19:50:53.247Z,23.58
2022-08-16T19:53:23.138Z,23.57
2022-08-16T19:55:50.818Z,23.54
2022-08-16T19:58:21.461Z,23.46
2022-08-16T20:00:51.070Z,23.42
2022-08-16T20:03:25.644Z,23.33
2022-08-16T20:05:53.848Z,23.30
2022-08-16T20:08:24.330Z,23.27
2022-08-16T20:10:52.049Z,23.23
2022-08-16T20:13:22.187Z,23.20
2022-08-16T20:15:50.615Z,23.17
2022-08-16T20:18:24.866Z,23.16
2022-08-16T20:20:54.012Z,23.10
2022-08-16T20:23:24.898Z,23.05
2022-08-16T20:25:53.566Z,23.02
2022-08-16T20:28:40.119Z,22.98
2022-08-16T20:31:11.485Z,22.92
2022-08-16T20:33:39.267Z,22.91
2022-08-16T20:36:07.082Z,22.89
2022-08-16T20:38:35.297Z,22.88
2022-08-16T20:41:03.411Z,22.85
2022-08-16T20:43:32.479Z,22.85
2022-08-16T20:46:00.172Z,22.80
2022-08-16T20:48:27.842Z,22.77
2022-08-16T20:50:56.201Z,22.73
2022-08-16T20:53:23.975Z,22.72
2022-08-16T20:55:51.667Z,22.70
2022-08-16T20:58:19.353Z,22.65
2022-08-16T21:00:48.522Z,22.60
2022-08-16T21:03:16.292Z,22.60
2022-08-16T21:05:45.324Z,22.56
2022-08-16T21:08:51.551Z,22.51
2022-08-16T21:11:03.230Z,22.43
2022-08-16T21:13:32.657Z,22.35
2022-08-16T21:16:02.543Z,22.32
2022-08-16T21:18:30.320Z,22.27
2022-08-16T21:20:57.963Z,22.25
2022-08-16T21:23:25.938Z,22.21
2022-08-16T21:25:58.875Z,22.18
2022-08-16T21:28:41.020Z,22.16
2022-08-16T21:31:12.162Z,22.14
2022-08-16T21:33:43.658Z,22.08
2022-08-16T21:36:11.924Z,22.05
2022-08-16T21:38:40.233Z,22.01
2022-08-16T21:41:10.210Z,21.94
2022-08-16T21:43:37.912Z,21.89
2022-08-16T21:46:06.520Z,21.80
2022-08-16T21:48:36.373Z,21.81
2022-08-16T21:51:09.665Z,21.75
2022-08-16T21:53:37.647Z,21.71
2022-08-16T21:56:06.752Z,21.67
2022-08-16T21:58:37.594Z,21.63
2022-08-16T22:01:05.348Z,21.62
2022-08-16T22:03:33.157Z,21.60
2022-08-16T22:06:13.074Z,21.61
2022-08-16T22:08:48.940Z,21.60
2022-08-16T22:11:17.861Z,21.57
2022-08-16T22:13:51.213Z,21.54
2022-08-16T22:16:26.355Z,21.49
2022-08-16T22:18:54.142Z,21.46
2022-08-16T22:21:23.229Z,21.45
2022-08-16T22:23:56.885Z,21.43
2022-08-16T22:26:30.880Z,21.42
2022-08-16T22:28:59.735Z,21.44
2022-08-16T22:31:27.465Z,21.44
2022-08-16T22:33:56.732Z,21.42
2022-08-16T22:36:28.102Z,21.41
2022-08-16T22:38:58.145Z,21.40
2022-08-16T22:41:26.892Z,21.38
2022-08-16T22:43:54.607Z,21.35
2022-08-16T22:46:22.296Z,21.33
2022-08-16T22:48:50.797Z,21.30
2022-08-16T22:51:19.047Z,21.26
2022-08-16T22:53:48.094Z,21.26
2022-08-16T22:56:16.019Z,21.26
2022-08-16T22:58:43.785Z,21.26
2022-08-16T23:01:12.854Z,21.27
2022-08-16T23:03:40.810Z,21.23
2022-08-16T23:06:08.996Z,21.22
2022-08-16T23:08:39.264Z,21.18
2022-08-16T23:11:10.785Z,21.15
2022-08-16T23:13:53.213Z,21.18
2022-08-16T23:16:22.011Z,21.17
2022-08-16T23:18:50.503Z,21.17
2022-08-16T23:21:18.716Z,21.14
2022-08-16T23:23:47.131Z,21.14
2022-08-16T23:26:44.186Z,21.13
2022-08-16T23:29:05.499Z,21.12
2022-08-16T23:31:43.540Z,21.11
2022-08-16T23:34:11.336Z,21.05
2022-08-16T23:36:39.032Z,21.01
2022-08-16T23:39:07.264Z,21.02
2022-08-16T23:41:36.483Z,21.01
2022-08-16T23:44:44.052Z,21.00
2022-08-16T23:46:52.047Z,20.97
2022-08-16T23:49:58.038Z,20.96
2022-08-16T23:52:08.551Z,20.93
2022-08-16T23:54:36.673Z,20.89
2022-08-16T23:57:06.135Z,20.92
2022-08-16T23:59:52.149Z,20.92
